sensor_id;sensor_type;location;lat;lon;timestamp;pressure;altitude;pressure_sealevel;temperature;humidity
51067;BME280;37112;45.892;-123.962;2023-05-10T00:00:40;101808.60;;;14.77;61.43
51067;BME280;37112;45.892;-123.962;2023-05-10T00:03:14;101810.45;;;14.76;61.92
51067;BME280;37112;45.892;-123.962;2023-05-10T00:05:37;101811.91;;;14.82;62.30
51067;BME280;37112;45.892;-123.962;2023-05-10T00:08:12;101811.03;;;14.79;61.95
51067;BME280;37112;45.892;-123.962;2023-05-10T00:10:38;101805.30;;;14.71;61.82
51067;BME280;37112;45.892;-123.962;2023-05-10T00:13:13;101806.77;;;14.76;61.89
51067;BME280;37112;45.892;-123.962;2023-05-10T00:15:47;101797.95;;;14.79;60.56
51067;BME280;37112;45.892;-123.962;2023-05-10T00:18:11;101800.05;;;14.80;60.93
51067;BME280;37112;45.892;-123.962;2023-05-10T00:20:40;101792.14;;;14.86;61.76
51067;BME280;37112;45.892;-123.962;2023-05-10T00:23:15;101792.81;;;14.91;61.41
51067;BME280;37112;45.892;-123.962;2023-05-10T00:25:49;101791.27;;;14.93;61.16
51067;BME280;37112;45.892;-123.962;2023-05-10T00:28:06;101791.48;;;14.98;61.16
51067;BME280;37112;45.892;-123.962;2023-05-10T00:30:32;101788.70;;;15.02;61.83
51067;BME280;37112;45.892;-123.962;2023-05-10T00:32:55;101787.91;;;15.05;61.03
51067;BME280;37112;45.892;-123.962;2023-05-10T00:35:22;101785.11;;;15.07;60.55
51067;BME280;37112;45.892;-123.962;2023-05-10T00:37:45;101788.25;;;15.03;60.72
51067;BME280;37112;45.892;-123.962;2023-05-10T00:40:11;101786.77;;;15.04;60.98
51067;BME280;37112;45.892;-123.962;2023-05-10T00:42:45;101791.17;;;15.02;60.27
51067;BME280;37112;45.892;-123.962;2023-05-10T00:45:19;101791.89;;;14.92;60.12
51067;BME280;37112;45.892;-123.962;2023-05-10T00:47:55;101790.89;;;14.88;60.09
51067;BME280;37112;45.892;-123.962;2023-05-10T00:50:30;101786.99;;;14.88;60.14
51067;BME280;37112;45.892;-123.962;2023-05-10T00:53:04;101788.09;;;14.88;60.12
51067;BME280;37112;45.892;-123.962;2023-05-10T00:55:24;101783.64;;;14.87;60.24
51067;BME280;37112;45.892;-123.962;2023-05-10T00:57:51;101786.20;;;14.86;59.96
51067;BME280;37112;45.892;-123.962;2023-05-10T01:00:26;101782.67;;;14.85;60.80
51067;BME280;37112;45.892;-123.962;2023-05-10T01:03:01;101783.55;;;14.91;60.83
51067;BME280;37112;45.892;-123.962;2023-05-10T01:05:29;101779.56;;;14.89;60.81
51067;BME280;37112;45.892;-123.962;2023-05-10T01:08:04;101782.84;;;14.91;60.98
51067;BME280;37112;45.892;-123.962;2023-05-10T01:10:49;101784.92;;;14.99;60.99
51067;BME280;37112;45.892;-123.962;2023-05-10T01:13:32;101785.36;;;14.98;60.26
51067;BME280;37112;45.892;-123.962;2023-05-10T01:16:07;101786.17;;;14.89;59.07
51067;BME280;37112;45.892;-123.962;2023-05-10T01:18:43;101786.52;;;14.79;59.73
51067;BME280;37112;45.892;-123.962;2023-05-10T01:21:23;101787.77;;;14.71;60.02
51067;BME280;37112;45.892;-123.962;2023-05-10T01:24:22;101784.86;;;14.58;60.22
51067;BME280;37112;45.892;-123.962;2023-05-10T01:32:59;101780.38;;;14.61;61.50
51067;BME280;37112;45.892;-123.962;2023-05-10T01:35:32;101780.83;;;14.62;61.17
51067;BME280;37112;45.892;-123.962;2023-05-10T01:38:04;101786.77;;;14.70;61.12
51067;BME280;37112;45.892;-123.962;2023-05-10T01:40:45;101787.28;;;14.73;60.84
51067;BME280;37112;45.892;-123.962;2023-05-10T01:43:28;101784.90;;;14.74;60.83
51067;BME280;37112;45.892;-123.962;2023-05-10T01:46:07;101783.81;;;14.71;61.42
51067;BME280;37112;45.892;-123.962;2023-05-10T01:48:50;101778.29;;;14.74;61.61
51067;BME280;37112;45.892;-123.962;2023-05-10T01:51:29;101776.50;;;14.87;61.78
51067;BME280;37112;45.892;-123.962;2023-05-10T01:54:06;101780.22;;;14.95;60.54
51067;BME280;37112;45.892;-123.962;2023-05-10T01:56:46;101778.08;;;14.93;59.29
51067;BME280;37112;45.892;-123.962;2023-05-10T01:59:17;101778.56;;;14.88;59.12
51067;BME280;37112;45.892;-123.962;2023-05-10T02:01:54;101782.30;;;14.91;59.79
51067;BME280;37112;45.892;-123.962;2023-05-10T02:04:31;101783.21;;;14.88;59.23
51067;BME280;37112;45.892;-123.962;2023-05-10T02:07:06;101783.01;;;14.86;58.70
51067;BME280;37112;45.892;-123.962;2023-05-10T02:09:31;101780.42;;;14.82;58.61
51067;BME280;37112;45.892;-123.962;2023-05-10T02:12:06;101784.04;;;14.76;59.01
51067;BME280;37112;45.892;-123.962;2023-05-10T02:14:37;101785.23;;;14.69;58.72
51067;BME280;37112;45.892;-123.962;2023-05-10T02:17:15;101785.89;;;14.62;59.80
51067;BME280;37112;45.892;-123.962;2023-05-10T02:19:50;101785.67;;;14.62;60.33
51067;BME280;37112;45.892;-123.962;2023-05-10T02:22:25;101786.81;;;14.61;60.41
51067;BME280;37112;45.892;-123.962;2023-05-10T02:25:01;101789.66;;;14.56;60.53
51067;BME280;37112;45.892;-123.962;2023-05-10T02:27:36;101789.43;;;14.52;60.69
51067;BME280;37112;45.892;-123.962;2023-05-10T02:30:00;101789.42;;;14.41;60.83
51067;BME280;37112;45.892;-123.962;2023-05-10T02:32:31;101790.77;;;14.26;61.39
51067;BME280;37112;45.892;-123.962;2023-05-10T02:35:06;101788.67;;;14.22;61.82
51067;BME280;37112;45.892;-123.962;2023-05-10T02:37:37;101787.08;;;14.22;61.98
51067;BME280;37112;45.892;-123.962;2023-05-10T02:40:14;101787.85;;;14.24;62.22
51067;BME280;37112;45.892;-123.962;2023-05-10T02:42:50;101787.80;;;14.25;62.27
51067;BME280;37112;45.892;-123.962;2023-05-10T02:45:27;101788.61;;;14.26;62.41
51067;BME280;37112;45.892;-123.962;2023-05-10T02:48:03;101789.78;;;14.22;62.22
51067;BME280;37112;45.892;-123.962;2023-05-10T02:50:40;101790.50;;;14.14;62.37
51067;BME280;37112;45.892;-123.962;2023-05-10T02:53:25;101787.38;;;14.15;62.81
51067;BME280;37112;45.892;-123.962;2023-05-10T02:56:12;101790.85;;;14.13;62.85
51067;BME280;37112;45.892;-123.962;2023-05-10T02:58:48;101791.09;;;14.07;62.88
51067;BME280;37112;45.892;-123.962;2023-05-10T03:01:12;101787.69;;;13.99;62.88
51067;BME280;37112;45.892;-123.962;2023-05-10T03:03:45;101789.65;;;13.91;63.27
51067;BME280;37112;45.892;-123.962;2023-05-10T03:06:21;101785.66;;;13.87;63.50
51067;BME280;37112;45.892;-123.962;2023-05-10T03:08:56;101789.25;;;13.83;63.76
51067;BME280;37112;45.892;-123.962;2023-05-10T03:11:39;101789.26;;;13.75;63.97
51067;BME280;37112;45.892;-123.962;2023-05-10T03:14:24;101790.45;;;13.70;64.29
51067;BME280;37112;45.892;-123.962;2023-05-10T03:17:06;101791.98;;;13.66;64.53
51067;BME280;37112;45.892;-123.962;2023-05-10T03:19:36;101790.56;;;13.57;64.48
51067;BME280;37112;45.892;-123.962;2023-05-10T03:22:11;101794.57;;;13.53;64.54
51067;BME280;37112;45.892;-123.962;2023-05-10T03:24:48;101796.13;;;13.51;64.65
51067;BME280;37112;45.892;-123.962;2023-05-10T03:27:22;101796.90;;;13.53;64.77
51067;BME280;37112;45.892;-123.962;2023-05-10T03:29:51;101796.99;;;13.54;64.95
51067;BME280;37112;45.892;-123.962;2023-05-10T03:32:26;101796.38;;;13.55;64.92
51067;BME280;37112;45.892;-123.962;2023-05-10T03:35:10;101797.90;;;13.51;64.71
51067;BME280;37112;45.892;-123.962;2023-05-10T03:37:32;101800.98;;;13.47;64.72
51067;BME280;37112;45.892;-123.962;2023-05-10T03:39:52;101804.05;;;13.44;64.72
51067;BME280;37112;45.892;-123.962;2023-05-10T03:42:19;101807.73;;;13.43;64.83
51067;BME280;37112;45.892;-123.962;2023-05-10T03:44:39;101804.02;;;13.39;64.83
51067;BME280;37112;45.892;-123.962;2023-05-10T03:46:57;101802.73;;;13.34;64.71
51067;BME280;37112;45.892;-123.962;2023-05-10T03:49:22;101803.55;;;13.29;64.77
51067;BME280;37112;45.892;-123.962;2023-05-10T03:51:40;101802.83;;;13.24;64.92
51067;BME280;37112;45.892;-123.962;2023-05-10T03:54:15;101800.96;;;13.19;64.95
51067;BME280;37112;45.892;-123.962;2023-05-10T03:56:44;101802.14;;;13.11;64.90
51067;BME280;37112;45.892;-123.962;2023-05-10T03:59:14;101799.69;;;13.01;65.04
51067;BME280;37112;45.892;-123.962;2023-05-10T04:01:38;101798.27;;;12.95;65.13
51067;BME280;37112;45.892;-123.962;2023-05-10T04:04:12;101804.67;;;12.87;65.13
51067;BME280;37112;45.892;-123.962;2023-05-10T04:06:37;101807.35;;;12.78;65.36
51067;BME280;37112;45.892;-123.962;2023-05-10T04:08:54;101809.54;;;12.74;65.58
51067;BME280;37112;45.892;-123.962;2023-05-10T04:11:21;101815.23;;;12.71;65.66
51067;BME280;37112;45.892;-123.962;2023-05-10T04:13:55;101817.79;;;12.67;65.72
51067;BME280;37112;45.892;-123.962;2023-05-10T04:16:30;101819.92;;;12.64;65.96
51067;BME280;37112;45.892;-123.962;2023-05-10T04:18:57;101819.45;;;12.60;65.99
51067;BME280;37112;45.892;-123.962;2023-05-10T04:21:18;101821.70;;;12.58;66.05
51067;BME280;37112;45.892;-123.962;2023-05-10T04:23:51;101822.50;;;12.56;66.14
51067;BME280;37112;45.892;-123.962;2023-05-10T04:26:08;101824.63;;;12.54;65.99
51067;BME280;37112;45.892;-123.962;2023-05-10T04:28:43;101829.95;;;12.50;66.06
51067;BME280;37112;45.892;-123.962;2023-05-10T04:31:18;101830.29;;;12.45;66.04
51067;BME280;37112;45.892;-123.962;2023-05-10T04:33:36;101828.70;;;12.39;66.11
51067;BME280;37112;45.892;-123.962;2023-05-10T04:36:02;101830.02;;;12.35;66.20
51067;BME280;37112;45.892;-123.962;2023-05-10T04:38:29;101829.71;;;12.27;66.07
51067;BME280;37112;45.892;-123.962;2023-05-10T04:40:54;101823.91;;;12.20;66.10
51067;BME280;37112;45.892;-123.962;2023-05-10T04:43:29;101820.71;;;12.10;66.23
51067;BME280;37112;45.892;-123.962;2023-05-10T04:45:46;101823.09;;;12.03;66.33
51067;BME280;37112;45.892;-123.962;2023-05-10T04:48:04;101822.12;;;11.91;66.37
51067;BME280;37112;45.892;-123.962;2023-05-10T04:50:40;101817.96;;;11.83;66.66
51067;BME280;37112;45.892;-123.962;2023-05-10T04:53:03;101821.26;;;11.74;66.89
51067;BME280;37112;45.892;-123.962;2023-05-10T04:55:59;101816.73;;;11.66;67.07
51067;BME280;37112;45.892;-123.962;2023-05-10T04:58:24;101819.39;;;11.60;67.20
51067;BME280;37112;45.892;-123.962;2023-05-10T05:01:07;101821.39;;;11.56;67.36
51067;BME280;37112;45.892;-123.962;2023-05-10T05:03:43;101820.76;;;11.51;67.57
51067;BME280;37112;45.892;-123.962;2023-05-10T05:06:02;101815.80;;;11.47;67.78
51067;BME280;37112;45.892;-123.962;2023-05-10T05:08:31;101817.33;;;11.42;67.77
51067;BME280;37112;45.892;-123.962;2023-05-10T05:11:02;101816.10;;;11.38;67.84
51067;BME280;37112;45.892;-123.962;2023-05-10T05:13:38;101816.27;;;11.32;67.88
51067;BME280;37112;45.892;-123.962;2023-05-10T05:16:03;101812.85;;;11.29;68.16
51067;BME280;37112;45.892;-123.962;2023-05-10T05:18:31;101812.51;;;11.25;68.24
51067;BME280;37112;45.892;-123.962;2023-05-10T05:21:02;101812.07;;;11.20;68.34
51067;BME280;37112;45.892;-123.962;2023-05-10T05:23:37;101809.81;;;11.16;68.56
51067;BME280;37112;45.892;-123.962;2023-05-10T05:26:11;101809.25;;;11.13;68.67
51067;BME280;37112;45.892;-123.962;2023-05-10T05:28:51;101811.52;;;11.10;68.72
51067;BME280;37112;45.892;-123.962;2023-05-10T05:31:25;101811.51;;;11.07;68.76
51067;BME280;37112;45.892;-123.962;2023-05-10T05:33:58;101809.73;;;11.04;68.91
51067;BME280;37112;45.892;-123.962;2023-05-10T05:36:15;101812.58;;;11.00;68.94
51067;BME280;37112;45.892;-123.962;2023-05-10T05:38:48;101816.45;;;10.98;69.11
51067;BME280;37112;45.892;-123.962;2023-05-10T05:41:14;101812.94;;;10.94;69.20
51067;BME280;37112;45.892;-123.962;2023-05-10T05:43:48;101811.70;;;10.90;69.19
51067;BME280;37112;45.892;-123.962;2023-05-10T05:46:22;101817.23;;;10.86;69.15
51067;BME280;37112;45.892;-123.962;2023-05-10T05:48:43;101813.13;;;10.79;69.18
51067;BME280;37112;45.892;-123.962;2023-05-10T05:51:05;101810.53;;;10.75;69.30
51067;BME280;37112;45.892;-123.962;2023-05-10T05:53:29;101811.09;;;10.71;69.36
51067;BME280;37112;45.892;-123.962;2023-05-10T05:55:58;101810.08;;;10.67;69.48
51067;BME280;37112;45.892;-123.962;2023-05-10T05:58:23;101805.65;;;10.62;69.62
51067;BME280;37112;45.892;-123.962;2023-05-10T06:00:40;101809.25;;;10.58;69.48
51067;BME280;37112;45.892;-123.962;2023-05-10T06:03:06;101809.90;;;10.52;69.41
51067;BME280;37112;45.892;-123.962;2023-05-10T06:05:39;101814.50;;;10.45;69.47
51067;BME280;37112;45.892;-123.962;2023-05-10T06:08:14;101816.52;;;10.40;69.65
51067;BME280;37112;45.892;-123.962;2023-05-10T06:10:48;101812.34;;;10.35;69.79
51067;BME280;37112;45.892;-123.962;2023-05-10T06:13:09;101811.84;;;10.30;69.93
51067;BME280;37112;45.892;-123.962;2023-05-10T06:15:27;101810.63;;;10.26;69.95
51067;BME280;37112;45.892;-123.962;2023-05-10T06:17:47;101811.32;;;10.23;70.10
51067;BME280;37112;45.892;-123.962;2023-05-10T06:20:14;101813.23;;;10.20;70.27
51067;BME280;37112;45.892;-123.962;2023-05-10T06:22:39;101812.15;;;10.16;70.44
51067;BME280;37112;45.892;-123.962;2023-05-10T06:25:02;101814.11;;;10.13;70.41
51067;BME280;37112;45.892;-123.962;2023-05-10T06:27:22;101814.16;;;10.08;70.43
51067;BME280;37112;45.892;-123.962;2023-05-10T06:29:42;101817.73;;;10.04;70.55
51067;BME280;37112;45.892;-123.962;2023-05-10T06:32:16;101814.24;;;9.99;70.70
51067;BME280;37112;45.892;-123.962;2023-05-10T06:34:39;101819.92;;;9.95;70.82
51067;BME280;37112;45.892;-123.962;2023-05-10T06:37:15;101817.05;;;9.88;70.82
51067;BME280;37112;45.892;-123.962;2023-05-10T06:39:31;101812.36;;;9.83;70.86
51067;BME280;37112;45.892;-123.962;2023-05-10T06:41:57;101809.10;;;9.76;71.03
51067;BME280;37112;45.892;-123.962;2023-05-10T06:44:34;101809.58;;;9.69;71.09
51067;BME280;37112;45.892;-123.962;2023-05-10T06:46:54;101808.05;;;9.64;71.28
51067;BME280;37112;45.892;-123.962;2023-05-10T06:49:17;101805.34;;;9.58;71.44
51067;BME280;37112;45.892;-123.962;2023-05-10T06:51:44;101800.20;;;9.54;71.70
51067;BME280;37112;45.892;-123.962;2023-05-10T06:54:05;101800.36;;;9.51;71.86
51067;BME280;37112;45.892;-123.962;2023-05-10T06:56:39;101797.35;;;9.46;72.03
51067;BME280;37112;45.892;-123.962;2023-05-10T06:59:07;101796.80;;;9.43;72.18
51067;BME280;37112;45.892;-123.962;2023-05-10T07:01:43;101798.36;;;9.40;72.44
51067;BME280;37112;45.892;-123.962;2023-05-10T07:04:18;101796.77;;;9.36;72.53
51067;BME280;37112;45.892;-123.962;2023-05-10T07:06:39;101799.88;;;9.33;72.64
51067;BME280;37112;45.892;-123.962;2023-05-10T07:09:13;101797.88;;;9.31;72.76
51067;BME280;37112;45.892;-123.962;2023-05-10T07:11:35;101799.52;;;9.30;73.04
51067;BME280;37112;45.892;-123.962;2023-05-10T07:14:09;101800.43;;;9.29;72.95
51067;BME280;37112;45.892;-123.962;2023-05-10T07:16:43;101792.54;;;9.28;73.20
51067;BME280;37112;45.892;-123.962;2023-05-10T07:19:07;101797.14;;;9.28;73.27
51067;BME280;37112;45.892;-123.962;2023-05-10T07:21:41;101794.10;;;9.25;73.32
51067;BME280;37112;45.892;-123.962;2023-05-10T07:24:09;101793.33;;;9.22;73.40
51067;BME280;37112;45.892;-123.962;2023-05-10T07:26:44;101791.14;;;9.19;73.42
51067;BME280;37112;45.892;-123.962;2023-05-10T07:29:18;101790.92;;;9.16;73.45
51067;BME280;37112;45.892;-123.962;2023-05-10T07:31:51;101788.57;;;9.13;73.65
51067;BME280;37112;45.892;-123.962;2023-05-10T07:34:28;101786.02;;;9.11;73.70
51067;BME280;37112;45.892;-123.962;2023-05-10T07:36:52;101782.37;;;9.09;73.95
51067;BME280;37112;45.892;-123.962;2023-05-10T07:39:29;101780.27;;;9.08;74.13
51067;BME280;37112;45.892;-123.962;2023-05-10T07:42:03;101785.05;;;9.08;74.09
51067;BME280;37112;45.892;-123.962;2023-05-10T07:44:26;101781.58;;;9.07;74.17
51067;BME280;37112;45.892;-123.962;2023-05-10T07:46:48;101781.88;;;9.05;74.20
51067;BME280;37112;45.892;-123.962;2023-05-10T07:49:22;101778.72;;;9.04;74.21
51067;BME280;37112;45.892;-123.962;2023-05-10T07:51:57;101773.75;;;9.00;74.14
51067;BME280;37112;45.892;-123.962;2023-05-10T07:54:27;101770.66;;;8.98;74.19
51067;BME280;37112;45.892;-123.962;2023-05-10T07:57:01;101768.59;;;8.96;74.39
51067;BME280;37112;45.892;-123.962;2023-05-10T07:59:34;101767.05;;;8.96;74.45
51067;BME280;37112;45.892;-123.962;2023-05-10T08:02:08;101765.59;;;8.96;74.73
51067;BME280;37112;45.892;-123.962;2023-05-10T08:07:26;101763.52;;;8.95;74.78
51067;BME280;37112;45.892;-123.962;2023-05-10T08:10:00;101763.55;;;8.94;74.95
51067;BME280;37112;45.892;-123.962;2023-05-10T08:12:36;101762.34;;;8.93;74.92
51067;BME280;37112;45.892;-123.962;2023-05-10T08:15:11;101760.16;;;8.91;75.08
51067;BME280;37112;45.892;-123.962;2023-05-10T08:17:50;101758.77;;;8.90;75.17
51067;BME280;37112;45.892;-123.962;2023-05-10T08:20:24;101753.56;;;8.88;75.03
51067;BME280;37112;45.892;-123.962;2023-05-10T08:22:58;101752.77;;;8.85;75.08
51067;BME280;37112;45.892;-123.962;2023-05-10T08:25:21;101751.53;;;8.82;75.04
51067;BME280;37112;45.892;-123.962;2023-05-10T08:27:55;101748.60;;;8.80;75.09
51067;BME280;37112;45.892;-123.962;2023-05-10T08:30:30;101744.43;;;8.78;75.15
51067;BME280;37112;45.892;-123.962;2023-05-10T08:33:03;101743.29;;;8.76;75.13
51067;BME280;37112;45.892;-123.962;2023-05-10T08:35:37;101745.37;;;8.73;75.29
51067;BME280;37112;45.892;-123.962;2023-05-10T08:38:00;101742.98;;;8.70;75.26
51067;BME280;37112;45.892;-123.962;2023-05-10T08:40:27;101744.20;;;8.67;75.17
51067;BME280;37112;45.892;-123.962;2023-05-10T08:43:04;101735.30;;;8.63;75.27
51067;BME280;37112;45.892;-123.962;2023-05-10T08:45:41;101729.95;;;8.60;75.48
51067;BME280;37112;45.892;-123.962;2023-05-10T08:48:08;101730.29;;;8.61;75.74
51067;BME280;37112;45.892;-123.962;2023-05-10T08:50:43;101729.33;;;8.62;75.89
51067;BME280;37112;45.892;-123.962;2023-05-10T08:53:18;101733.70;;;8.63;75.99
51067;BME280;37112;45.892;-123.962;2023-05-10T08:55:46;101734.42;;;8.63;75.93
51067;BME280;37112;45.892;-123.962;2023-05-10T08:58:09;101728.60;;;8.63;75.95
51067;BME280;37112;45.892;-123.962;2023-05-10T09:00:29;101729.92;;;8.61;75.86
51067;BME280;37112;45.892;-123.962;2023-05-10T09:02:56;101730.02;;;8.59;75.92
51067;BME280;37112;45.892;-123.962;2023-05-10T09:05:23;101727.83;;;8.57;75.88
51067;BME280;37112;45.892;-123.962;2023-05-10T09:07:58;101727.01;;;8.55;76.04
51067;BME280;37112;45.892;-123.962;2023-05-10T09:10:24;101722.52;;;8.52;75.99
51067;BME280;37112;45.892;-123.962;2023-05-10T09:13:21;101720.34;;;8.50;76.23
51067;BME280;37112;45.892;-123.962;2023-05-10T09:15:57;101716.52;;;8.48;76.19
51067;BME280;37112;45.892;-123.962;2023-05-10T09:18:52;101710.20;;;8.46;76.40
51067;BME280;37112;45.892;-123.962;2023-05-10T09:21:22;101708.05;;;8.43;76.27
51067;BME280;37112;45.892;-123.962;2023-05-10T09:23:55;101709.27;;;8.39;76.27
51067;BME280;37112;45.892;-123.962;2023-05-10T09:26:29;101705.39;;;8.34;76.36
51067;BME280;37112;45.892;-123.962;2023-05-10T09:28:56;101709.74;;;8.31;76.58
51067;BME280;37112;45.892;-123.962;2023-05-10T09:31:46;101704.42;;;8.28;76.69
51067;BME280;37112;45.892;-123.962;2023-05-10T09:34:11;101703.48;;;8.25;76.82
51067;BME280;37112;45.892;-123.962;2023-05-10T09:36:56;101705.14;;;8.23;76.98
51067;BME280;37112;45.892;-123.962;2023-05-10T09:39:38;101702.45;;;8.20;76.97
51067;BME280;37112;45.892;-123.962;2023-05-10T09:42:07;101700.60;;;8.18;77.11
51067;BME280;37112;45.892;-123.962;2023-05-10T09:44:42;101698.56;;;8.16;77.12
51067;BME280;37112;45.892;-123.962;2023-05-10T09:47:19;101698.09;;;8.14;77.28
51067;BME280;37112;45.892;-123.962;2023-05-10T09:49:55;101692.92;;;8.11;77.23
51067;BME280;37112;45.892;-123.962;2023-05-10T09:52:33;101692.13;;;8.09;77.40
51067;BME280;37112;45.892;-123.962;2023-05-10T09:55:20;101690.36;;;8.04;77.44
51067;BME280;37112;45.892;-123.962;2023-05-10T09:58:02;101686.98;;;8.00;77.39
51067;BME280;37112;45.892;-123.962;2023-05-10T10:00:42;101686.96;;;7.97;77.62
51067;BME280;37112;45.892;-123.962;2023-05-10T10:03:19;101690.96;;;7.94;77.65
51067;BME280;37112;45.892;-123.962;2023-05-10T10:05:54;101690.52;;;7.92;77.77
51067;BME280;37112;45.892;-123.962;2023-05-10T10:08:30;101692.19;;;7.90;77.87
51067;BME280;37112;45.892;-123.962;2023-05-10T10:11:04;101694.17;;;7.89;78.06
51067;BME280;37112;45.892;-123.962;2023-05-10T10:13:39;101696.70;;;7.88;78.00
51067;BME280;37112;45.892;-123.962;2023-05-10T10:16:13;101696.91;;;7.88;78.16
51067;BME280;37112;45.892;-123.962;2023-05-10T10:18:47;101689.80;;;7.88;78.30
51067;BME280;37112;45.892;-123.962;2023-05-10T10:21:45;101690.67;;;7.89;78.32
51067;BME280;37112;45.892;-123.962;2023-05-10T10:24:07;101689.77;;;7.89;78.35
51067;BME280;37112;45.892;-123.962;2023-05-10T10:26:41;101688.89;;;7.89;78.31
51067;BME280;37112;45.892;-123.962;2023-05-10T10:29:23;101690.23;;;7.86;78.39
51067;BME280;37112;45.892;-123.962;2023-05-10T10:32:06;101689.02;;;7.85;78.45
51067;BME280;37112;45.892;-123.962;2023-05-10T10:34:43;101690.08;;;7.86;78.49
51067;BME280;37112;45.892;-123.962;2023-05-10T10:37:18;101690.94;;;7.87;78.38
51067;BME280;37112;45.892;-123.962;2023-05-10T10:39:53;101690.42;;;7.86;78.20
51067;BME280;37112;45.892;-123.962;2023-05-10T10:42:49;101689.45;;;7.83;78.15
51067;BME280;37112;45.892;-123.962;2023-05-10T10:45:24;101686.02;;;7.81;77.92
51067;BME280;37112;45.892;-123.962;2023-05-10T10:48:23;101681.70;;;7.78;78.13
51067;BME280;37112;45.892;-123.962;2023-05-10T10:51:01;101683.02;;;7.76;78.25
51067;BME280;37112;45.892;-123.962;2023-05-10T10:53:28;101682.20;;;7.75;78.23
51067;BME280;37112;45.892;-123.962;2023-05-10T10:56:12;101686.70;;;7.73;78.11
51067;BME280;37112;45.892;-123.962;2023-05-10T10:58:41;101689.25;;;7.71;78.13
51067;BME280;37112;45.892;-123.962;2023-05-10T11:01:19;101690.92;;;7.69;78.19
51067;BME280;37112;45.892;-123.962;2023-05-10T11:04:18;101691.05;;;7.66;78.17
51067;BME280;37112;45.892;-123.962;2023-05-10T11:06:53;101693.02;;;7.61;78.09
51067;BME280;37112;45.892;-123.962;2023-05-10T11:09:43;101694.95;;;7.57;78.08
51067;BME280;37112;45.892;-123.962;2023-05-10T11:12:17;101694.73;;;7.53;77.94
51067;BME280;37112;45.892;-123.962;2023-05-10T11:14:59;101692.08;;;7.48;77.95
51067;BME280;37112;45.892;-123.962;2023-05-10T11:17:34;101689.89;;;7.45;77.97
51067;BME280;37112;45.892;-123.962;2023-05-10T11:20:14;101682.95;;;7.43;77.97
51067;BME280;37112;45.892;-123.962;2023-05-10T11:22:55;101680.27;;;7.39;77.96
51067;BME280;37112;45.892;-123.962;2023-05-10T11:25:31;101676.66;;;7.36;77.89
51067;BME280;37112;45.892;-123.962;2023-05-10T11:28:08;101676.29;;;7.33;77.93
51067;BME280;37112;45.892;-123.962;2023-05-10T11:30:44;101674.59;;;7.30;78.06
51067;BME280;37112;45.892;-123.962;2023-05-10T11:33:22;101675.92;;;7.28;78.20
51067;BME280;37112;45.892;-123.962;2023-05-10T11:35:56;101676.77;;;7.24;78.22
51067;BME280;37112;45.892;-123.962;2023-05-10T11:38:32;101679.41;;;7.20;78.18
51067;BME280;37112;45.892;-123.962;2023-05-10T11:41:04;101679.90;;;7.16;78.37
51067;BME280;37112;45.892;-123.962;2023-05-10T11:43:39;101675.71;;;7.15;78.60
51067;BME280;37112;45.892;-123.962;2023-05-10T11:46:15;101673.79;;;7.14;78.74
51067;BME280;37112;45.892;-123.962;2023-05-10T11:48:55;101669.15;;;7.11;78.74
51067;BME280;37112;45.892;-123.962;2023-05-10T11:51:32;101668.93;;;7.08;78.78
51067;BME280;37112;45.892;-123.962;2023-05-10T11:54:10;101660.17;;;7.06;78.93
51067;BME280;37112;45.892;-123.962;2023-05-10T11:56:44;101658.73;;;7.02;78.80
51067;BME280;37112;45.892;-123.962;2023-05-10T11:59:19;101659.54;;;6.99;78.88
51067;BME280;37112;45.892;-123.962;2023-05-10T12:01:53;101657.12;;;6.97;79.03
51067;BME280;37112;45.892;-123.962;2023-05-10T12:04:29;101653.45;;;6.96;79.17
51067;BME280;37112;45.892;-123.962;2023-05-10T12:07:03;101648.91;;;6.95;79.22
51067;BME280;37112;45.892;-123.962;2023-05-10T12:09:30;101642.88;;;6.96;79.41
51067;BME280;37112;45.892;-123.962;2023-05-10T12:12:18;101640.55;;;6.97;79.63
51067;BME280;37112;45.892;-123.962;2023-05-10T12:14:53;101636.27;;;6.97;79.79
51067;BME280;37112;45.892;-123.962;2023-05-10T12:17:33;101632.34;;;6.98;79.80
51067;BME280;37112;45.892;-123.962;2023-05-10T12:20:20;101632.45;;;7.02;79.82
51067;BME280;37112;45.892;-123.962;2023-05-10T12:22:56;101631.57;;;7.02;79.92
51067;BME280;37112;45.892;-123.962;2023-05-10T12:25:32;101630.20;;;7.00;79.92
51067;BME280;37112;45.892;-123.962;2023-05-10T12:28:09;101631.14;;;6.98;79.74
51067;BME280;37112;45.892;-123.962;2023-05-10T12:30:44;101629.41;;;6.97;79.75
51067;BME280;37112;45.892;-123.962;2023-05-10T12:33:11;101628.42;;;6.95;79.57
51067;BME280;37112;45.892;-123.962;2023-05-10T12:35:49;101621.13;;;6.92;79.69
51067;BME280;37112;45.892;-123.962;2023-05-10T12:38:40;101618.73;;;6.90;79.58
51067;BME280;37112;45.892;-123.962;2023-05-10T12:41:14;101620.88;;;6.89;79.81
51067;BME280;37112;45.892;-123.962;2023-05-10T12:43:48;101620.90;;;6.89;79.96
51067;BME280;37112;45.892;-123.962;2023-05-10T12:46:24;101622.34;;;6.88;80.14
51067;BME280;37112;45.892;-123.962;2023-05-10T12:48:53;101623.73;;;6.89;80.10
51067;BME280;37112;45.892;-123.962;2023-05-10T12:51:32;101622.19;;;6.88;80.17
51067;BME280;37112;45.892;-123.962;2023-05-10T12:53:58;101622.52;;;6.88;80.37
51067;BME280;37112;45.892;-123.962;2023-05-10T12:56:26;101621.92;;;6.90;80.58
51067;BME280;37112;45.892;-123.962;2023-05-10T12:59:00;101625.70;;;6.93;80.69
51067;BME280;37112;45.892;-123.962;2023-05-10T13:01:35;101625.39;;;6.96;80.98